createdAt,value
2023-03-11T00:00:56.356Z,81.72
2023-03-11T00:03:24.441Z,82.29
2023-03-11T00:05:52.852Z,83.85
2023-03-11T00:08:24.209Z,84.42
2023-03-11T00:11:00.532Z,84.93
2023-03-11T00:13:29.450Z,85.29
2023-03-11T00:15:56.586Z,86.36
2023-03-11T00:18:27.008Z,85.95
2023-03-11T00:20:56.051Z,86.62
2023-03-11T00:23:24.285Z,86.43
2023-03-11T00:25:51.328Z,85.97
2023-03-11T00:28:18.358Z,87.00
2023-03-11T00:30:46.799Z,88.08
2023-03-11T00:33:15.918Z,88.19
2023-03-11T00:35:43.990Z,88.18
2023-03-11T00:38:15.431Z,86.16
2023-03-11T00:40:43.921Z,86.53
2023-03-11T00:43:10.953Z,87.03
2023-03-11T00:45:38.042Z,86.59
2023-03-11T00:48:06.259Z,87.73
2023-03-11T00:50:36.592Z,89.25
2023-03-11T00:53:05.779Z,83.49
2023-03-11T00:55:35.087Z,78.08
2023-03-11T00:58:07.112Z,77.01
2023-03-11T01:00:35.224Z,78.05
2023-03-11T01:03:02.263Z,78.11
2023-03-11T01:05:33.447Z,78.01
2023-03-11T01:08:01.331Z,79.21
2023-03-11T01:10:31.128Z,79.72
2023-03-11T01:12:58.455Z,77.85
2023-03-11T01:15:33.107Z,78.31
2023-03-11T01:18:00.920Z,77.80
2023-03-11T01:20:28.160Z,77.90
2023-03-11T01:22:55.176Z,79.38
2023-03-11T01:25:24.237Z,79.77
2023-03-11T01:27:51.408Z,79.61
2023-03-11T01:30:22.066Z,80.24
2023-03-11T01:32:49.187Z,80.20
2023-03-11T01:35:18.923Z,79.66
2023-03-11T01:37:46.608Z,79.72
2023-03-11T01:40:24.772Z,81.86
2023-03-11T01:42:51.740Z,82.40
2023-03-11T01:45:30.391Z,81.57
2023-03-11T01:47:57.376Z,80.66
2023-03-11T01:50:27.736Z,78.91
2023-03-11T01:52:54.691Z,79.07
2023-03-11T01:55:22.175Z,79.32
2023-03-11T01:57:50.357Z,78.88
2023-03-11T02:00:17.520Z,78.75
2023-03-11T02:02:56.052Z,78.92
2023-03-11T02:05:24.564Z,79.22
2023-03-11T02:07:53.911Z,78.86
2023-03-11T02:10:21.641Z,78.71
2023-03-11T02:12:50.141Z,79.55
2023-03-11T02:15:17.290Z,79.99
2023-03-11T02:17:44.574Z,80.15
2023-03-11T02:20:47.468Z,80.03
2023-03-11T02:23:16.234Z,80.53
2023-03-11T02:25:48.849Z,79.91
2023-03-11T02:28:18.259Z,78.86
2023-03-11T02:30:45.900Z,78.56
2023-03-11T02:33:14.881Z,79.49
2023-03-11T02:35:41.791Z,79.16
2023-03-11T02:38:08.764Z,79.24
2023-03-11T02:40:52.145Z,79.13
2023-03-11T02:43:33.501Z,80.61
2023-03-11T02:46:01.728Z,80.08
2023-03-11T02:48:29.959Z,80.95
2023-03-11T02:50:57.710Z,80.83
2023-03-11T02:53:26.758Z,81.25
2023-03-11T02:55:53.620Z,81.59
2023-03-11T02:58:20.514Z,82.80
2023-03-11T03:00:47.476Z,82.85
2023-03-11T03:03:14.478Z,83.51
2023-03-11T03:05:41.449Z,83.66
2023-03-11T03:08:08.795Z,84.36
2023-03-11T03:10:35.697Z,83.70
2023-03-11T03:13:02.711Z,83.55
2023-03-11T03:15:30.403Z,83.63
2023-03-11T03:17:57.337Z,83.62
2023-03-11T03:20:24.271Z,84.15
2023-03-11T03:22:51.531Z,84.56
2023-03-11T03:25:18.683Z,84.85
2023-03-11T03:27:45.640Z,84.53
2023-03-11T03:30:12.805Z,84.50
2023-03-11T03:32:40.155Z,84.80
2023-03-11T03:35:07.995Z,84.83
2023-03-11T03:37:37.096Z,85.25
2023-03-11T03:40:07.841Z,85.40
2023-03-11T03:42:36.612Z,85.33
2023-03-11T03:45:06.935Z,86.48
2023-03-11T03:47:35.179Z,86.83
2023-03-11T03:50:08.607Z,87.27
2023-03-11T03:52:36.889Z,87.66
2023-03-11T03:55:06.219Z,87.70
2023-03-11T03:57:33.617Z,88.01
2023-03-11T04:00:00.561Z,87.64
2023-03-11T04:02:27.647Z,87.88
2023-03-11T04:04:54.533Z,88.14
2023-03-11T04:07:21.455Z,88.18
2023-03-11T04:09:49.192Z,88.24
2023-03-11T04:12:19.768Z,88.28
2023-03-11T04:14:46.827Z,88.45
2023-03-11T04:17:14.750Z,88.75
2023-03-11T04:19:41.794Z,88.82
2023-03-11T04:22:09.290Z,88.80
2023-03-11T04:24:36.409Z,88.31
2023-03-11T04:27:03.541Z,88.92
2023-03-11T04:29:30.608Z,89.07
2023-03-11T04:31:57.654Z,88.72
2023-03-11T04:34:24.768Z,88.99
2023-03-11T04:36:54.278Z,89.02
2023-03-11T04:39:21.311Z,89.01
2023-03-11T04:41:48.523Z,89.38
2023-03-11T04:44:15.722Z,90.10
2023-03-11T04:46:42.820Z,89.88
2023-03-11T04:49:10.413Z,90.19
2023-03-11T04:51:38.623Z,90.56
2023-03-11T04:54:05.934Z,91.19
2023-03-11T04:56:32.872Z,91.28
2023-03-11T04:59:00.617Z,90.94
2023-03-11T05:01:27.715Z,90.44
2023-03-11T05:03:54.648Z,90.76
2023-03-11T05:06:21.567Z,91.14
2023-03-11T05:08:48.491Z,91.84
2023-03-11T05:11:15.408Z,90.98
2023-03-11T05:13:42.338Z,90.65
2023-03-11T05:16:10.554Z,91.45
2023-03-11T05:18:37.461Z,91.63
2023-03-11T05:21:04.866Z,90.66
2023-03-11T05:23:31.953Z,90.84
2023-03-11T05:25:58.872Z,90.81
2023-03-11T05:28:25.874Z,89.58
2023-03-11T05:30:52.822Z,90.03
2023-03-11T05:33:19.774Z,90.11
2023-03-11T05:35:46.928Z,90.08
2023-03-11T05:38:14.193Z,89.52
2023-03-11T05:40:41.457Z,90.05
2023-03-11T05:43:08.513Z,90.57
2023-03-11T05:45:35.442Z,91.72
2023-03-11T05:48:02.409Z,91.12
2023-03-11T05:50:29.354Z,90.54
2023-03-11T05:52:56.333Z,90.57
2023-03-11T05:55:23.300Z,89.98
2023-03-11T05:57:52.406Z,89.84
2023-03-11T06:00:20.547Z,89.50
2023-03-11T06:02:47.549Z,89.51
2023-03-11T06:05:14.730Z,88.27
2023-03-11T06:07:41.781Z,89.06
2023-03-11T06:10:09.827Z,89.44
2023-03-11T06:12:38.469Z,89.77
2023-03-11T06:15:07.544Z,89.15
2023-03-11T06:17:34.435Z,87.31
2023-03-11T06:20:01.382Z,88.42
2023-03-11T06:22:28.224Z,88.51
2023-03-11T06:24:55.212Z,88.79
2023-03-11T06:27:22.146Z,88.74
2023-03-11T06:29:53.640Z,88.11
2023-03-11T06:32:20.588Z,88.49
2023-03-11T06:34:52.268Z,88.21
2023-03-11T06:37:21.035Z,87.66
2023-03-11T06:39:48.050Z,87.93
2023-03-11T06:42:15.102Z,86.70
2023-03-11T06:44:42.121Z,87.04
2023-03-11T06:47:09.084Z,87.27
2023-03-11T06:49:37.008Z,86.35
2023-03-11T06:52:04.166Z,86.04
2023-03-11T06:54:31.190Z,86.18
2023-03-11T06:56:58.147Z,86.83
2023-03-11T06:59:25.086Z,86.07
2023-03-11T07:01:52.067Z,86.76
2023-03-11T07:04:18.996Z,86.89
2023-03-11T07:06:46.005Z,86.49
2023-03-11T07:09:13.049Z,86.37
2023-03-11T07:11:40.045Z,85.61
2023-03-11T07:14:07.179Z,84.99
2023-03-11T07:16:34.204Z,84.80
2023-03-11T07:19:03.165Z,84.23
2023-03-11T07:21:32.072Z,83.22
2023-03-11T07:24:02.769Z,82.61
2023-03-11T07:26:32.353Z,83.91
2023-03-11T07:28:59.361Z,83.42
2023-03-11T07:31:32.536Z,83.05
2023-03-11T07:34:03.261Z,82.15
2023-03-11T07:36:30.897Z,81.45
2023-03-11T07:39:05.016Z,80.86
2023-03-11T07:41:34.689Z,80.23
2023-03-11T07:44:03.594Z,80.54
2023-03-11T07:46:31.458Z,80.50
2023-03-11T07:48:58.995Z,80.62
2023-03-11T07:51:29.786Z,80.01
2023-03-11T07:53:59.076Z,79.72
2023-03-11T07:56:29.579Z,80.52
2023-03-11T07:58:58.938Z,79.56
2023-03-11T08:01:30.610Z,78.36
2023-03-11T08:03:58.902Z,80.34
2023-03-11T08:06:32.524Z,80.77
2023-03-11T08:09:02.178Z,78.13
2023-03-11T08:11:31.217Z,78.66
2023-03-11T08:13:58.332Z,78.32
2023-03-11T08:16:26.425Z,77.58
2023-03-11T08:18:54.469Z,76.59
2023-03-11T08:21:27.274Z,76.68
2023-03-11T08:23:59.033Z,76.09
2023-03-11T08:26:26.168Z,76.13
2023-03-11T08:28:54.700Z,74.58
2023-03-11T08:31:28.893Z,72.85
2023-03-11T08:34:04.777Z,70.95
2023-03-11T08:36:32.467Z,72.19
2023-03-11T08:39:00.171Z,70.72
2023-03-11T08:41:28.442Z,73.55
2023-03-11T08:43:55.493Z,71.23
2023-03-11T08:46:34.049Z,71.00
2023-03-11T08:49:02.227Z,69.36
2023-03-11T08:51:32.227Z,70.24
2023-03-11T08:54:00.951Z,72.16
2023-03-11T08:56:28.110Z,68.14
2023-03-11T08:58:55.225Z,70.96
2023-03-11T09:01:23.637Z,69.09
2023-03-11T09:03:51.030Z,69.84
2023-03-11T09:06:19.007Z,67.68
2023-03-11T09:08:47.834Z,65.97
2023-03-11T09:11:16.175Z,68.65
2023-03-11T09:13:43.537Z,67.51
2023-03-11T09:16:16.734Z,68.56
2023-03-11T09:18:45.329Z,65.90
2023-03-11T09:21:12.914Z,66.10
2023-03-11T09:23:43.597Z,64.40
2023-03-11T09:26:12.139Z,63.61
2023-03-11T09:28:39.674Z,68.11
2023-03-11T09:31:07.038Z,65.44
2023-03-11T09:33:42.086Z,64.13
2023-03-11T09:36:17.896Z,63.32
2023-03-11T09:38:45.576Z,63.67
2023-03-11T09:41:55.277Z,60.50
2023-03-11T09:44:42.493Z,60.31
2023-03-11T09:47:26.069Z,62.22
2023-03-11T09:50:00.661Z,61.57
2023-03-11T09:52:58.868Z,59.72
2023-03-11T09:55:40.784Z,59.37
2023-03-11T09:58:11.748Z,57.74
2023-03-11T10:00:39.671Z,58.25
2023-03-11T10:03:22.226Z,58.32
2023-03-11T10:05:51.771Z,56.32
2023-03-11T10:08:52.830Z,54.99
2023-03-11T10:11:45.395Z,53.17
2023-03-11T10:14:27.254Z,52.58
2023-03-11T10:17:15.604Z,53.61
2023-03-11T10:20:23.337Z,52.84
2023-03-11T10:23:05.044Z,52.99
2023-03-11T10:25:59.701Z,56.10
2023-03-11T10:29:14.275Z,56.44
2023-03-11T10:32:00.917Z,56.62
2023-03-11T10:34:39.816Z,56.46
2023-03-11T10:37:17.572Z,58.12
2023-03-11T10:39:48.712Z,57.47
2023-03-11T10:42:25.539Z,56.60
2023-03-11T10:44:52.729Z,54.69
2023-03-11T10:47:23.146Z,55.43
2023-03-11T10:49:50.693Z,55.98
2023-03-11T10:52:18.089Z,54.72
2023-03-11T10:55:00.310Z,52.83
2023-03-11T10:57:34.272Z,54.32
2023-03-11T11:00:12.310Z,54.03
2023-03-11T11:02:43.710Z,54.07
2023-03-11T11:05:17.756Z,53.62
2023-03-11T11:08:03.705Z,55.08
2023-03-11T11:10:36.022Z,54.45
2023-03-11T11:13:36.681Z,51.78
2023-03-11T11:16:21.012Z,52.58
2023-03-11T11:19:10.893Z,51.63
2023-03-11T11:21:49.454Z,54.27
2023-03-11T11:24:27.326Z,52.38
2023-03-11T11:27:26.861Z,51.75
2023-03-11T11:30:23.992Z,52.87
2023-03-11T11:32:53.779Z,54.31
2023-03-11T11:35:25.015Z,53.86
2023-03-11T11:38:01.829Z,55.36
2023-03-11T11:40:34.040Z,55.63
2023-03-11T11:43:14.261Z,54.59
2023-03-11T11:45:55.332Z,52.42
2023-03-11T11:48:49.723Z,53.92
2023-03-11T11:51:34.115Z,53.52
2023-03-11T11:54:31.493Z,53.44
2023-03-11T11:57:00.422Z,53.45
2023-03-11T11:59:28.735Z,55.60
2023-03-11T12:02:55.545Z,58.39
2023-03-11T12:05:33.729Z,56.51
2023-03-11T12:08:26.486Z,53.57
2023-03-11T12:11:34.829Z,57.37
2023-03-11T12:14:10.233Z,55.70
2023-03-11T12:16:56.945Z,54.83
2023-03-11T12:20:13.001Z,52.66
2023-03-11T12:22:45.918Z,54.77
2023-03-11T12:25:48.354Z,56.18
2023-03-11T12:28:41.346Z,56.16
2023-03-11T12:31:12.416Z,55.15
2023-03-11T12:34:03.234Z,54.70
2023-03-11T12:36:37.697Z,54.23
2023-03-11T12:39:08.530Z,55.02
2023-03-11T12:41:42.251Z,52.66
2023-03-11T12:44:29.154Z,53.05
2023-03-11T12:47:04.327Z,52.44
2023-03-11T12:49:37.041Z,52.16
2023-03-11T12:52:14.139Z,54.84
2023-03-11T12:54:44.114Z,56.71
2023-03-11T12:57:17.113Z,56.76
2023-03-11T12:59:48.178Z,52.71
2023-03-11T13:02:33.210Z,55.25
2023-03-11T13:05:51.346Z,56.67
2023-03-11T13:08:26.134Z,54.28
2023-03-11T13:10:55.688Z,55.49
2023-03-11T13:13:25.254Z,56.22
2023-03-11T13:15:53.116Z,54.35
2023-03-11T13:18:24.789Z,53.63
2023-03-11T13:20:55.974Z,53.63
2023-03-11T13:23:31.014Z,52.80
2023-03-11T13:26:29.286Z,51.61
2023-03-11T13:29:25.088Z,51.21
2023-03-11T13:32:12.659Z,53.43
2023-03-11T13:34:57.270Z,52.68
2023-03-11T13:38:11.702Z,52.91
2023-03-11T13:40:42.081Z,52.25
2023-03-11T13:43:24.210Z,49.74
2023-03-11T13:46:08.464Z,48.92
2023-03-11T13:48:48.045Z,49.75
2023-03-11T13:51:24.870Z,48.87
2023-03-11T13:54:02.698Z,47.40
2023-03-11T13:56:33.337Z,46.64
2023-03-11T13:59:31.100Z,48.89
2023-03-11T14:02:07.025Z,49.69
2023-03-11T14:04:37.457Z,50.10
2023-03-11T14:07:22.461Z,51.95
2023-03-11T14:09:49.461Z,52.94
2023-03-11T14:12:18.714Z,50.80
2023-03-11T14:15:01.228Z,52.98
2023-03-11T14:17:28.255Z,52.36
2023-03-11T14:20:18.353Z,54.79
2023-03-11T14:22:49.318Z,51.04
2023-03-11T14:25:25.186Z,49.88
2023-03-11T14:28:02.044Z,50.40
2023-03-11T14:30:34.243Z,52.14
2023-03-11T14:33:21.990Z,51.63
2023-03-11T14:36:15.708Z,51.88
2023-03-11T14:38:44.314Z,52.90
2023-03-11T14:41:14.287Z,52.04
2023-03-11T14:43:46.413Z,53.42
2023-03-11T14:46:23.330Z,54.38
2023-03-11T14:48:51.114Z,53.99
2023-03-11T14:51:29.387Z,55.75
2023-03-11T14:54:19.454Z,56.01
2023-03-11T14:57:00.077Z,53.72
2023-03-11T14:59:32.369Z,52.83
2023-03-11T15:02:31.165Z,51.94
2023-03-11T15:05:00.713Z,57.51
2023-03-11T15:07:28.070Z,57.17
2023-03-11T15:09:56.019Z,55.88
2023-03-11T15:12:37.422Z,56.41
2023-03-11T15:15:29.134Z,55.11
2023-03-11T15:17:59.764Z,54.00
2023-03-11T15:20:37.801Z,53.54
2023-03-11T15:23:07.684Z,54.65
2023-03-11T15:25:38.357Z,54.99
2023-03-11T15:28:25.212Z,56.50
2023-03-11T15:31:21.156Z,55.37
2023-03-11T15:33:49.391Z,54.33
2023-03-11T15:36:50.048Z,57.00
2023-03-11T15:39:31.201Z,56.19
2023-03-11T15:42:06.235Z,57.32
2023-03-11T15:44:57.594Z,55.00
2023-03-11T15:47:24.504Z,57.30
2023-03-11T15:49:51.734Z,56.01
2023-03-11T15:52:19.978Z,54.69
2023-03-11T15:54:55.131Z,55.24
2023-03-11T15:57:27.703Z,57.59
2023-03-11T15:59:57.828Z,60.10
2023-03-11T16:02:31.064Z,63.09
2023-03-11T16:04:59.082Z,62.49
2023-03-11T16:07:38.621Z,65.66
2023-03-11T16:10:08.730Z,63.44
2023-03-11T16:12:36.387Z,64.98
2023-03-11T16:15:04.354Z,64.74
2023-03-11T16:17:46.725Z,63.88
2023-03-11T16:20:16.468Z,65.77
2023-03-11T16:22:43.470Z,63.79
2023-03-11T16:25:21.928Z,63.06
2023-03-11T16:27:51.184Z,64.74
2023-03-11T16:30:18.989Z,65.35
2023-03-11T16:32:45.975Z,66.35
2023-03-11T16:35:13.432Z,63.70
2023-03-11T16:37:42.753Z,63.60
2023-03-11T16:40:25.895Z,67.30
2023-03-11T16:43:07.421Z,70.01
2023-03-11T16:45:34.610Z,68.32
2023-03-11T16:48:02.385Z,67.12
2023-03-11T16:50:29.674Z,68.70
2023-03-11T16:52:57.783Z,68.96
2023-03-11T16:55:26.749Z,67.68
2023-03-11T16:57:54.765Z,67.08
2023-03-11T17:00:22.214Z,69.25
2023-03-11T17:02:49.215Z,68.35
2023-03-11T17:05:16.432Z,69.00
2023-03-11T17:07:43.628Z,69.63
2023-03-11T17:10:11.696Z,70.80
2023-03-11T17:12:38.732Z,70.68
2023-03-11T17:15:07.470Z,72.33
2023-03-11T17:17:34.546Z,72.98
2023-03-11T17:20:01.504Z,72.61
2023-03-11T17:22:28.548Z,73.05
2023-03-11T17:24:55.630Z,73.54
2023-03-11T17:27:22.570Z,72.39
2023-03-11T17:29:49.918Z,73.22
2023-03-11T17:32:17.571Z,75.25
2023-03-11T17:34:44.847Z,75.23
2023-03-11T17:37:11.844Z,74.42
2023-03-11T17:39:38.869Z,74.38
2023-03-11T17:42:06.013Z,75.83
2023-03-11T17:44:48.559Z,73.79
2023-03-11T17:47:19.664Z,76.87
2023-03-11T17:49:47.959Z,76.91
2023-03-11T17:52:15.000Z,76.51
2023-03-11T17:54:42.277Z,76.44
2023-03-11T17:57:09.180Z,76.71
2023-03-11T17:59:36.110Z,77.94
2023-03-11T18:02:03.593Z,76.65
2023-03-11T18:04:30.535Z,76.48
2023-03-11T18:06:57.403Z,75.10
2023-03-11T18:09:24.465Z,74.45
2023-03-11T18:11:51.357Z,75.08
2023-03-11T18:14:18.245Z,75.13
2023-03-11T18:16:45.200Z,77.32
2023-03-11T18:19:12.215Z,77.37
2023-03-11T18:21:39.184Z,77.84
2023-03-11T18:24:06.762Z,79.10
2023-03-11T18:26:34.569Z,79.63
2023-03-11T18:29:01.949Z,80.23
2023-03-11T18:31:30.908Z,78.78
2023-03-11T18:34:02.790Z,78.84
2023-03-11T18:36:33.900Z,77.35
2023-03-11T18:39:01.922Z,77.23
2023-03-11T18:41:33.860Z,77.01
2023-03-11T18:44:01.192Z,76.85
2023-03-11T18:46:33.361Z,79.24
2023-03-11T18:49:02.332Z,81.56
2023-03-11T18:51:31.896Z,82.78
2023-03-11T18:54:00.583Z,83.83
2023-03-11T18:56:30.901Z,83.25
2023-03-11T18:58:59.514Z,80.62
2023-03-11T19:01:27.542Z,80.45
2023-03-11T19:03:59.926Z,79.79
2023-03-11T19:06:28.935Z,79.94
2023-03-11T19:08:57.767Z,79.24
2023-03-11T19:11:25.998Z,80.57
2023-03-11T19:13:53.387Z,82.21
2023-03-11T19:16:24.793Z,82.84
2023-03-11T19:18:53.839Z,83.85
2023-03-11T19:21:22.124Z,82.68
2023-03-11T19:23:51.762Z,82.07
2023-03-11T19:26:18.965Z,81.47
2023-03-11T19:28:45.859Z,80.83
2023-03-11T19:31:12.908Z,80.39
2023-03-11T19:33:40.046Z,80.83
2023-03-11T19:36:08.432Z,80.53
2023-03-11T19:38:35.958Z,82.48
2023-03-11T19:41:11.111Z,82.32
2023-03-11T19:43:38.256Z,82.41
2023-03-11T19:46:07.273Z,82.82
2023-03-11T19:48:34.977Z,82.69
2023-03-11T19:51:02.831Z,82.12
2023-03-11T19:53:29.880Z,83.03
2023-03-11T19:55:57.328Z,83.38
2023-03-11T19:58:30.225Z,82.26
2023-03-11T20:00:58.922Z,83.08
2023-03-11T20:03:26.737Z,83.74
2023-03-11T20:05:56.667Z,84.23
2023-03-11T20:08:25.842Z,83.84
2023-03-11T20:10:53.479Z,84.55
2023-03-11T20:13:22.255Z,84.56
2023-03-11T20:15:49.862Z,85.10
2023-03-11T20:18:18.116Z,85.74
2023-03-11T20:20:46.634Z,86.44
2023-03-11T20:23:14.322Z,86.26
2023-03-11T20:25:42.442Z,86.43
2023-03-11T20:28:09.826Z,85.97
2023-03-11T20:30:38.874Z,86.33
2023-03-11T20:33:06.791Z,87.44
2023-03-11T20:35:34.130Z,87.59
2023-03-11T20:38:02.788Z,86.88
2023-03-11T20:40:30.474Z,86.04
2023-03-11T20:42:57.510Z,86.01
2023-03-11T20:45:24.773Z,84.86
2023-03-11T20:47:53.688Z,84.09
2023-03-11T20:50:21.793Z,83.90
2023-03-11T20:52:49.663Z,85.03
2023-03-11T20:55:16.839Z,85.87
2023-03-11T20:57:43.852Z,85.84
2023-03-11T21:00:12.647Z,86.37
2023-03-11T21:02:41.794Z,86.34
2023-03-11T21:05:10.277Z,86.10
2023-03-11T21:07:37.531Z,86.43
2023-03-11T21:10:10.187Z,86.94
2023-03-11T21:12:37.643Z,86.42
2023-03-11T21:15:06.088Z,86.11
2023-03-11T21:17:34.662Z,86.02
2023-03-11T21:20:02.016Z,86.09
2023-03-11T21:22:28.942Z,85.93
2023-03-11T21:24:56.390Z,86.29
2023-03-11T21:27:27.531Z,86.25
2023-03-11T21:29:56.019Z,85.78
2023-03-11T21:32:24.942Z,86.36
2023-03-11T21:34:57.162Z,86.88
2023-03-11T21:37:25.123Z,86.94
2023-03-11T21:39:52.507Z,87.84
2023-03-11T21:42:20.509Z,88.62
2023-03-11T21:44:47.659Z,90.18
2023-03-11T21:47:14.846Z,91.71
2023-03-11T21:49:42.008Z,91.98
2023-03-11T21:52:09.042Z,91.61
2023-03-11T21:54:36.229Z,91.31
2023-03-11T21:57:03.469Z,90.76
2023-03-11T21:59:30.898Z,90.90
2023-03-11T22:02:02.637Z,90.57
2023-03-11T22:04:31.422Z,89.59
2023-03-11T22:06:58.510Z,89.30
2023-03-11T22:09:26.316Z,89.68
2023-03-11T22:11:56.259Z,89.63
2023-03-11T22:14:24.184Z,90.81
2023-03-11T22:16:52.141Z,91.25
2023-03-11T22:19:19.240Z,90.66
2023-03-11T22:21:46.317Z,91.24
2023-03-11T22:24:13.281Z,90.07
2023-03-11T22:26:40.275Z,90.73
2023-03-11T22:29:08.914Z,90.79
2023-03-11T22:31:36.107Z,89.79
2023-03-11T22:34:03.192Z,90.30
2023-03-11T22:36:30.182Z,90.28
2023-03-11T22:38:57.203Z,91.02
2023-03-11T22:41:24.287Z,91.56
2023-03-11T22:43:51.279Z,91.74
2023-03-11T22:46:18.360Z,92.08
2023-03-11T22:48:45.446Z,91.79
2023-03-11T22:51:13.082Z,91.34
2023-03-11T22:53:40.004Z,91.31
2023-03-11T22:56:10.607Z,91.21
2023-03-11T22:58:37.693Z,90.50
2023-03-11T23:01:05.915Z,90.56
2023-03-11T23:03:34.098Z,90.64
2023-03-11T23:06:04.256Z,90.17
2023-03-11T23:08:31.706Z,89.17
2023-03-11T23:11:07.216Z,89.66
2023-03-11T23:13:37.873Z,89.54
2023-03-11T23:16:11.595Z,89.97
2023-03-11T23:18:38.806Z,90.68
2023-03-11T23:21:13.210Z,90.31
2023-03-11T23:23:40.142Z,90.42
2023-03-11T23:26:12.674Z,91.51
2023-03-11T23:28:41.260Z,91.60
2023-03-11T23:31:13.988Z,92.94
2023-03-11T23:33:41.699Z,93.00
2023-03-11T23:36:13.754Z,93.42
2023-03-11T23:38:41.728Z,92.37
2023-03-11T23:41:12.863Z,92.32
2023-03-11T23:43:40.318Z,93.58
2023-03-11T23:46:07.948Z,93.65
2023-03-11T23:48:35.580Z,92.81
2023-03-11T23:51:04.413Z,92.78
2023-03-11T23:53:32.389Z,92.50
2023-03-11T23:55:59.408Z,92.24
2023-03-11T23:58:26.543Z,92.53
